Terminal Aerodrome Forecast
Issued by NWS Key West, FL

Home | Current Version | Previous Version | Text Only | Print | Product List | Glossary On
Versions: 1 2 3 4 5 6 7 8 9 10 11 12 13 14 15 16 17 18 19 20 21 22 23 24 25 26
000
FTUS42 KKEY 241135
TAFEYW
TAF
KEYW 241135Z 2412/2512 22008KT P6SM VCSH SCT021 BKN100 OVC250
      TEMPO 2414/2418 24010G20KT 3SM TSRA BR BKN021CB OVC100
     FM241800 22008KT P6SM VCTS SCT021CB BKN100 OVC250
      TEMPO 2418/2422 24010G20KT 2SM TSRA BR BKN021CB OVC100=

USA.gov is the U.S. government's official web portal to all federal, state and local government web resources and services.